Time;durP1;ratioP1;P1;durP2;ratioP2;P2;SDS_P1;SDS_P2;PMS_P1;PMS_P2;Temp;Humidity;BMP_temperature;BMP_pressure;BME280_temperature;BME280_humidity;BME280_pressure;Samples;Min_cycle;Max_cycle;Signal;HPM_P1;HPM_P2
2022/10/15 00:00:29;;;;;;;7.53;4.88;;;14.10;99.90;;;;;;5041165;28;20033;-58
2022/10/15 00:02:55;;;;;;;11.93;4.63;;;14.10;99.90;;;;;;5040746;28;20029;-59
2022/10/15 00:05:21;;;;;;;9.65;4.03;;;14.00;99.90;;;;;;5042293;28;20037;-58
2022/10/15 00:07:47;;;;;;;13.32;4.40;;;14.10;99.90;;;;;;5049314;28;20032;-58
2022/10/15 00:10:13;;;;;;;8.73;5.13;;;14.00;99.90;;;;;;5049478;28;20029;-58
2022/10/15 00:12:39;;;;;;;15.05;5.40;;;14.10;99.90;;;;;;5050792;28;20029;-57
2022/10/15 00:15:05;;;;;;;7.00;4.55;;;14.00;99.90;;;;;;5045743;28;20110;-56
2022/10/15 00:17:32;;;;;;;7.93;4.88;;;14.00;99.90;;;;;;5055068;28;20045;-54
2022/10/15 00:19:58;;;;;;;6.30;4.57;;;14.00;99.90;;;;;;5043739;28;20572;-56
2022/10/15 00:22:23;;;;;;;6.60;4.43;;;14.10;99.90;;;;;;5047730;28;20033;-55
2022/10/15 00:24:49;;;;;;;10.68;5.05;;;14.10;99.90;;;;;;5045131;28;20032;-57
2022/10/15 00:27:15;;;;;;;5.78;3.72;;;14.00;99.90;;;;;;5046448;28;20043;-55
2022/10/15 00:29:40;;;;;;;6.45;4.20;;;14.10;99.90;;;;;;5044983;28;20033;-56
2022/10/15 00:32:06;;;;;;;7.97;3.92;;;14.10;99.90;;;;;;5047576;28;20036;-54
2022/10/15 00:34:31;;;;;;;10.43;4.80;;;14.20;99.90;;;;;;5045086;28;20036;-57
2022/10/15 00:36:57;;;;;;;10.75;4.53;;;14.10;99.90;;;;;;5048109;28;20407;-58
2022/10/15 00:39:22;;;;;;;12.85;5.10;;;14.00;99.90;;;;;;5046694;28;20033;-57
2022/10/15 00:41:48;;;;;;;9.27;5.05;;;14.00;99.90;;;;;;5047338;28;20037;-55
2022/10/15 00:44:28;;;;;;;8.90;4.88;;;13.90;99.90;;;;;;5038092;28;20026;-52
2022/10/15 00:47:04;;;;;;;17.25;4.57;;;14.00;99.90;;;;;;5037683;28;20030;-58
2022/10/15 00:49:34;;;;;;;8.65;4.57;;;14.00;99.90;;;;;;5046755;28;20375;-58
2022/10/15 00:52:04;;;;;;;7.43;4.00;;;14.10;99.90;;;;;;5042295;28;20079;-57
2022/10/15 00:54:36;;;;;;;9.32;4.45;;;14.10;99.90;;;;;;5047878;28;20033;-57
2022/10/15 00:57:03;;;;;;;11.85;6.03;;;14.10;99.90;;;;;;5049472;28;20487;-53
2022/10/15 00:59:30;;;;;;;8.00;4.75;;;13.90;99.90;;;;;;5042147;28;20452;-57
2022/10/15 01:01:58;;;;;;;14.10;4.72;;;13.80;99.90;;;;;;5044629;28;20032;-55
2022/10/15 01:04:23;;;;;;;11.63;4.38;;;13.80;99.90;;;;;;5040906;28;20124;-53
2022/10/15 01:06:49;;;;;;;9.63;3.97;;;13.70;99.90;;;;;;5046037;28;20119;-58
2022/10/15 01:09:15;;;;;;;6.38;4.47;;;13.60;99.90;;;;;;5044097;28;20029;-56
2022/10/15 01:11:48;;;;;;;11.50;4.40;;;13.60;99.90;;;;;;5049190;28;20033;-54
2022/10/15 01:14:35;;;;;;;6.30;4.28;;;13.50;99.90;;;;;;5044975;28;20402;-57
2022/10/15 01:17:05;;;;;;;13.35;4.63;;;13.40;99.90;;;;;;5028186;28;20964;-58
2022/10/15 01:19:49;;;;;;;10.55;4.47;;;13.40;99.90;;;;;;5045984;28;20553;-60
2022/10/15 01:22:53;;;;;;;6.72;4.07;;;13.40;99.90;;;;;;5037839;28;20100;-59
2022/10/15 01:25:37;;;;;;;8.45;4.18;;;13.40;99.90;;;;;;5043543;28;20029;-60
2022/10/15 01:28:18;;;;;;;7.82;4.90;;;13.40;99.90;;;;;;5049055;28;20395;-58
2022/10/15 01:30:51;;;;;;;7.68;4.50;;;13.40;99.90;;;;;;5046410;28;20029;-59
2022/10/15 01:33:40;;;;;;;13.82;5.00;;;13.30;99.90;;;;;;5047232;28;20021;-59
2022/10/15 01:36:25;;;;;;;9.07;4.97;;;13.40;99.90;;;;;;5045843;28;20112;-58
2022/10/15 01:39:14;;;;;;;12.55;5.05;;;13.30;99.90;;;;;;5043957;28;20035;-59
2022/10/15 01:41:43;;;;;;;12.60;5.30;;;13.20;99.90;;;;;;5042456;28;20029;-58
2022/10/15 01:44:34;;;;;;;10.05;5.80;;;13.10;99.90;;;;;;5038019;28;20029;-52
2022/10/15 01:47:05;;;;;;;9.15;5.85;;;13.10;99.90;;;;;;5038248;28;20033;-57
2022/10/15 01:49:37;;;;;;;8.45;5.15;;;13.00;99.90;;;;;;5040623;28;20517;-54
2022/10/15 01:52:11;;;;;;;14.80;6.38;;;13.00;99.90;;;;;;5041495;28;20029;-57
2022/10/15 01:54:38;;;;;;;;;;;13.00;99.90;;;;;;5040046;28;20029;-55
2022/10/15 01:57:05;;;;;;;10.32;5.38;;;13.00;99.90;;;;;;5038139;28;19912;-58
2022/10/15 01:59:32;;;;;;;7.65;5.43;;;13.00;99.90;;;;;;5037544;28;20075;-58
2022/10/15 02:01:58;;;;;;;10.82;5.82;;;13.10;99.90;;;;;;5037066;28;20127;-57
2022/10/15 02:04:28;;;;;;;10.13;5.25;;;13.10;99.90;;;;;;5038604;28;20112;-53
2022/10/15 02:07:08;;;;;;;9.88;5.30;;;13.00;99.90;;;;;;5041489;28;20029;-56
2022/10/15 02:10:06;;;;;;;21.67;6.40;;;12.90;99.90;;;;;;5036569;28;20086;-56
2022/10/15 02:12:42;;;;;;;14.95;5.32;;;12.90;99.90;;;;;;5038679;28;20024;-59
2022/10/15 02:15:16;;;;;;;14.43;6.75;;;12.80;99.90;;;;;;5040132;28;20033;-55
2022/10/15 02:17:58;;;;;;;18.67;6.18;;;12.80;99.90;;;;;;5040550;28;20039;-59
2022/10/15 02:20:40;;;;;;;12.95;6.80;;;12.80;99.90;;;;;;5040780;28;20018;-57
2022/10/15 02:23:30;;;;;;;14.93;6.75;;;12.80;99.90;;;;;;5046630;28;20040;-57
2022/10/15 02:25:57;;;;;;;14.60;7.78;;;12.80;99.90;;;;;;5037987;28;20029;-56
2022/10/15 02:28:25;;;;;;;19.15;7.78;;;12.80;99.90;;;;;;5037558;28;20029;-58
2022/10/15 02:30:52;;;;;;;17.52;8.30;;;12.80;99.90;;;;;;5041320;28;20482;-58
2022/10/15 02:33:19;;;;;;;22.85;6.85;;;12.80;99.90;;;;;;5039178;28;20498;-54
2022/10/15 02:35:47;;;;;;;16.00;8.07;;;12.80;99.90;;;;;;5040366;28;20244;-59
2022/10/15 02:38:16;;;;;;;15.93;7.53;;;12.90;99.90;;;;;;5037967;28;20395;-57
2022/10/15 02:40:43;;;;;;;9.45;6.32;;;12.90;99.90;;;;;;5038075;28;20372;-58
2022/10/15 02:43:11;;;;;;;13.75;6.10;;;12.90;99.90;;;;;;5019796;28;20029;-53
2022/10/15 02:45:37;;;;;;;20.65;7.18;;;13.00;99.90;;;;;;5037259;28;20037;-59
2022/10/15 02:48:03;;;;;;;14.98;6.82;;;13.00;99.90;;;;;;5037404;28;20044;-54
2022/10/15 02:50:28;;;;;;;11.20;7.05;;;13.00;99.90;;;;;;5054863;22;20075;-62
2022/10/15 02:52:54;;;;;;;11.07;6.00;;;13.00;99.90;;;;;;5037960;28;20125;-65
2022/10/15 02:55:19;;;;;;;14.25;7.32;;;13.00;99.90;;;;;;5032738;28;20406;-65
2022/10/15 02:57:45;;;;;;;11.20;6.35;;;13.10;99.90;;;;;;5035924;28;20033;-64
2022/10/15 03:00:11;;;;;;;12.60;6.65;;;13.00;99.90;;;;;;5036444;28;20044;-62
2022/10/15 03:02:36;;;;;;;16.10;6.22;;;13.00;99.90;;;;;;5040951;28;20029;-65
2022/10/15 03:05:02;;;;;;;8.07;5.57;;;13.00;99.90;;;;;;5047637;28;20032;-59
2022/10/15 03:07:28;;;;;;;12.25;6.93;;;13.10;99.90;;;;;;5050935;28;20072;-61
2022/10/15 03:09:53;;;;;;;11.02;6.63;;;13.10;99.90;;;;;;5049349;28;20068;-62
2022/10/15 03:12:22;;;;;;;7.75;5.25;;;13.10;99.90;;;;;;5046428;28;20021;-65
2022/10/15 03:14:48;;;;;;;10.18;5.10;;;13.10;99.90;;;;;;5046150;28;20047;-65
2022/10/15 03:17:14;;;;;;;14.65;5.25;;;13.10;99.90;;;;;;5048550;28;20029;-62
2022/10/15 03:19:40;;;;;;;8.23;5.07;;;13.20;99.90;;;;;;5047211;28;20032;-63
2022/10/15 03:22:05;;;;;;;10.35;6.03;;;13.20;99.90;;;;;;5045444;28;20037;-64
2022/10/15 03:24:31;;;;;;;9.90;5.97;;;13.30;99.90;;;;;;5048890;28;21318;-62
2022/10/15 03:26:57;;;;;;;11.02;5.43;;;13.30;99.90;;;;;;5047798;28;20029;-62
2022/10/15 03:29:22;;;;;;;11.20;5.90;;;13.30;99.90;;;;;;5048002;28;20028;-63
2022/10/15 03:31:48;;;;;;;16.42;5.82;;;13.20;99.90;;;;;;5048605;28;20029;-64
2022/10/15 03:34:14;;;;;;;10.23;6.28;;;13.20;99.90;;;;;;5048419;28;20552;-62
2022/10/15 03:36:39;;;;;;;15.10;5.97;;;13.20;99.90;;;;;;5046899;28;20029;-62
2022/10/15 03:39:06;;;;;;;9.88;5.20;;;13.20;99.90;;;;;;5048144;28;20044;-62
2022/10/15 03:41:32;;;;;;;20.83;5.53;;;13.10;99.90;;;;;;5046046;28;20033;-63
2022/10/15 03:44:01;;;;;;;13.38;5.93;;;13.10;99.90;;;;;;5049549;28;20082;-63
2022/10/15 03:46:27;;;;;;;12.07;5.63;;;13.10;99.90;;;;;;5047537;28;20039;-65
2022/10/15 03:48:52;;;;;;;8.50;4.65;;;13.10;99.90;;;;;;5047393;28;20427;-62
2022/10/15 03:51:18;;;;;;;10.52;5.25;;;13.20;99.90;;;;;;5045609;28;20517;-60
2022/10/15 03:53:43;;;;;;;14.30;5.25;;;13.10;99.90;;;;;;5048256;28;20548;-64
2022/10/15 03:56:09;;;;;;;10.55;4.68;;;13.10;99.90;;;;;;5043923;28;20047;-62
2022/10/15 03:58:34;;;;;;;12.18;5.60;;;13.20;99.90;;;;;;5038567;28;20152;-62
2022/10/15 04:01:00;;;;;;;8.48;5.05;;;13.20;99.90;;;;;;5041212;28;20376;-66
2022/10/15 04:03:26;;;;;;;10.27;5.43;;;13.30;99.90;;;;;;5037413;28;20032;-65
2022/10/15 04:05:52;;;;;;;10.95;6.40;;;13.20;99.90;;;;;;5036372;28;20035;-64
2022/10/15 04:08:18;;;;;;;14.10;6.03;;;13.20;99.90;;;;;;5038122;28;20033;-66
2022/10/15 04:10:44;;;;;;;11.93;6.63;;;13.20;99.90;;;;;;5038934;28;20040;-65
2022/10/15 04:13:10;;;;;;;9.82;5.43;;;13.20;99.90;;;;;;5038845;28;20540;-63
2022/10/15 04:15:38;;;;;;;12.00;5.38;;;13.20;99.90;;;;;;5037693;28;20041;-64
2022/10/15 04:18:04;;;;;;;20.08;5.80;;;13.20;99.90;;;;;;5040545;28;20025;-64
2022/10/15 04:20:29;;;;;;;9.55;5.68;;;13.20;99.90;;;;;;5046297;28;20090;-64
2022/10/15 04:22:55;;;;;;;9.45;5.47;;;13.20;99.90;;;;;;5046679;28;20033;-62
2022/10/15 04:25:21;;;;;;;16.13;4.88;;;13.20;99.90;;;;;;5046709;28;20065;-67
2022/10/15 04:27:46;;;;;;;15.73;5.78;;;13.30;99.90;;;;;;5049560;28;20096;-65
2022/10/15 04:30:12;;;;;;;10.05;5.32;;;13.40;99.90;;;;;;5048516;28;20111;-63
2022/10/15 04:32:38;;;;;;;10.52;6.07;;;13.40;99.90;;;;;;5047679;28;20082;-64
2022/10/15 04:35:04;;;;;;;10.07;5.72;;;13.40;99.90;;;;;;5048497;28;20021;-63
2022/10/15 04:37:32;;;;;;;12.02;6.35;;;13.30;99.90;;;;;;5048913;28;20047;-63
2022/10/15 04:39:58;;;;;;;8.13;5.40;;;13.20;99.90;;;;;;5044807;28;20029;-66
2022/10/15 04:42:23;;;;;;;9.30;5.22;;;13.20;99.90;;;;;;5048999;28;20043;-61
2022/10/15 04:44:49;;;;;;;15.70;6.78;;;13.30;99.90;;;;;;5047511;28;20028;-63
2022/10/15 04:47:14;;;;;;;12.35;5.60;;;13.30;99.90;;;;;;5044600;28;20037;-63
2022/10/15 04:49:40;;;;;;;19.55;6.53;;;13.20;99.90;;;;;;5048014;28;20116;-63
2022/10/15 04:52:05;;;;;;;11.32;6.00;;;13.10;99.90;;;;;;5046353;28;20056;-63
2022/10/15 04:54:31;;;;;;;13.82;5.93;;;13.10;99.90;;;;;;5045392;28;20032;-63
2022/10/15 04:56:57;;;;;;;10.50;5.50;;;13.10;99.90;;;;;;5045523;28;20025;-66
2022/10/15 04:59:22;;;;;;;11.32;5.05;;;13.10;99.90;;;;;;5044615;28;20033;-62
2022/10/15 05:01:48;;;;;;;13.35;6.65;;;13.20;99.90;;;;;;5043272;28;20478;-65
2022/10/15 05:04:13;;;;;;;8.75;5.35;;;13.30;99.90;;;;;;5046098;28;20041;-63
2022/10/15 05:06:39;;;;;;;16.15;5.95;;;13.20;99.90;;;;;;5040422;28;20032;-65
2022/10/15 05:09:04;;;;;;;13.63;5.60;;;13.20;99.90;;;;;;5035081;28;20036;-61
2022/10/15 05:11:30;;;;;;;15.93;6.13;;;13.10;99.90;;;;;;5039772;28;20021;-64
2022/10/15 05:13:57;;;;;;;11.35;5.95;;;13.10;99.90;;;;;;5036003;28;20024;-63
2022/10/15 05:16:25;;;;;;;9.88;6.00;;;13.10;99.90;;;;;;5038164;28;20160;-64
2022/10/15 05:18:54;;;;;;;10.93;6.43;;;13.10;99.90;;;;;;5036240;28;20108;-63
2022/10/15 05:21:19;;;;;;;20.27;6.65;;;13.10;99.90;;;;;;5035369;28;20111;-62
2022/10/15 05:23:46;;;;;;;15.77;6.50;;;13.10;99.90;;;;;;5036308;28;20040;-65
2022/10/15 05:26:14;;;;;;;11.43;6.53;;;13.10;99.90;;;;;;5036951;28;20040;-65
2022/10/15 05:28:40;;;;;;;13.30;6.20;;;13.20;99.90;;;;;;5041867;28;20119;-65
2022/10/15 05:31:08;;;;;;;10.52;5.57;;;13.20;99.90;;;;;;5047273;28;20108;-63
2022/10/15 05:33:34;;;;;;;13.30;6.78;;;13.30;99.90;;;;;;5045737;28;20029;-62
2022/10/15 05:36:20;;;;;;;8.15;5.35;;;13.30;99.90;;;;;;5047976;28;20024;-63
2022/10/15 05:38:54;;;;;;;10.73;6.72;;;13.30;99.90;;;;;;5044333;28;20687;-64
2022/10/15 05:41:21;;;;;;;14.95;6.72;;;13.30;99.90;;;;;;5044824;28;20394;-62
2022/10/15 05:43:48;;;;;;;14.05;7.43;;;13.20;99.90;;;;;;5046210;28;20041;-61
2022/10/15 05:46:13;;;;;;;15.90;6.90;;;13.10;99.90;;;;;;5043590;28;20469;-61
2022/10/15 05:48:39;;;;;;;12.45;6.75;;;13.10;99.90;;;;;;5046750;28;20067;-64
2022/10/15 05:51:07;;;;;;;12.90;6.15;;;13.20;99.90;;;;;;5046678;28;20042;-66
2022/10/15 05:53:33;;;;;;;14.45;7.32;;;13.20;99.90;;;;;;5048132;28;20025;-61
2022/10/15 05:55:59;;;;;;;13.13;6.78;;;13.20;99.90;;;;;;5044172;28;20036;-61
2022/10/15 05:58:28;;;;;;;15.57;6.63;;;13.20;99.90;;;;;;5047475;28;20029;-63
2022/10/15 06:00:59;;;;;;;11.88;6.40;;;13.10;99.90;;;;;;5047708;28;20127;-63
2022/10/15 06:03:26;;;;;;;12.15;6.20;;;13.10;99.90;;;;;;5046369;28;20060;-60
2022/10/15 06:05:52;;;;;;;10.93;5.85;;;13.10;99.90;;;;;;5046949;28;20394;-64
2022/10/15 06:08:17;;;;;;;16.83;6.22;;;13.10;99.90;;;;;;5047471;28;20036;-63
2022/10/15 06:10:43;;;;;;;15.02;6.55;;;13.00;99.90;;;;;;5046625;28;20056;-60
2022/10/15 06:13:09;;;;;;;7.72;4.72;;;12.90;99.90;;;;;;5047091;28;20021;-63
2022/10/15 06:15:39;;;;;;;12.63;5.78;;;12.90;99.90;;;;;;5044735;28;20025;-66
2022/10/15 06:18:05;;;;;;;19.15;5.90;;;12.80;99.90;;;;;;5047468;28;20506;-62
2022/10/15 06:20:30;;;;;;;9.90;5.95;;;12.80;99.90;;;;;;5045429;28;20041;-60
2022/10/15 06:22:57;;;;;;;19.58;6.47;;;12.80;99.90;;;;;;5042696;28;20025;-61
2022/10/15 06:25:23;;;;;;;16.20;5.72;;;12.70;99.90;;;;;;5043753;28;20043;-63
2022/10/15 06:27:49;;;;;;;9.75;5.05;;;12.70;99.90;;;;;;5043533;28;20025;-62
2022/10/15 06:30:15;;;;;;;12.75;5.47;;;12.60;99.90;;;;;;5044989;28;20060;-66
2022/10/15 06:32:47;;;;;;;9.10;5.50;;;12.60;99.90;;;;;;5048038;28;20055;-65
2022/10/15 06:35:13;;;;;;;7.95;5.13;;;12.60;99.90;;;;;;5043306;28;20029;-62
2022/10/15 06:37:38;;;;;;;13.70;5.38;;;12.60;99.90;;;;;;5040929;28;20830;-66
2022/10/15 06:40:04;;;;;;;9.52;5.13;;;12.50;99.90;;;;;;5047258;28;20060;-62
2022/10/15 06:42:29;;;;;;;10.50;5.95;;;12.50;99.90;;;;;;5051085;28;20079;-62
2022/10/15 06:44:55;;;;;;;11.88;5.70;;;12.50;99.90;;;;;;5047648;28;20038;-67
2022/10/15 06:47:20;;;;;;;7.93;4.78;;;12.50;99.90;;;;;;5051170;28;20040;-63
2022/10/15 06:49:46;;;;;;;10.85;5.80;;;12.60;99.90;;;;;;5048895;28;20693;-66
2022/10/15 06:52:12;;;;;;;8.70;4.47;;;12.70;99.90;;;;;;5048076;28;20079;-63
2022/10/15 06:54:37;;;;;;;10.93;5.13;;;12.80;99.90;;;;;;5041821;28;20036;-62
2022/10/15 06:57:03;;;;;;;8.68;5.30;;;12.80;99.90;;;;;;5051703;28;20025;-65
2022/10/15 06:59:28;;;;;;;16.08;5.20;;;12.90;99.90;;;;;;5050714;28;20041;-65
2022/10/15 07:01:54;;;;;;;12.52;6.57;;;12.90;99.90;;;;;;5047943;28;20021;-64
2022/10/15 07:04:22;;;;;;;11.30;5.60;;;13.00;99.90;;;;;;5051054;28;20486;-68
2022/10/15 07:06:47;;;;;;;10.68;4.25;;;13.10;99.90;;;;;;5048591;28;20074;-64
2022/10/15 07:09:13;;;;;;;12.80;5.00;;;13.20;99.90;;;;;;5049222;28;20028;-64
2022/10/15 07:11:38;;;;;;;9.18;4.30;;;13.20;99.90;;;;;;5047162;28;20083;-51
2022/10/15 07:14:04;;;;;;;11.02;5.45;;;13.30;99.90;;;;;;5044057;28;20099;-58
2022/10/15 07:16:29;;;;;;;10.48;4.57;;;13.40;99.90;;;;;;5045558;28;20430;-57
2022/10/15 07:18:55;;;;;;;7.68;4.40;;;13.40;99.90;;;;;;5047193;28;20178;-53
2022/10/15 07:21:20;;;;;;;13.05;4.72;;;13.50;99.90;;;;;;5049362;28;20032;-58
2022/10/15 07:23:46;;;;;;;13.55;5.32;;;13.50;99.90;;;;;;5043613;28;20504;-57
2022/10/15 07:26:11;;;;;;;9.23;4.72;;;13.60;99.90;;;;;;5047456;28;20029;-51
2022/10/15 07:28:37;;;;;;;7.25;4.30;;;13.70;99.90;;;;;;5050258;28;20028;-59
2022/10/15 07:31:06;;;;;;;6.63;3.50;;;13.80;99.90;;;;;;5049700;28;20116;-54
2022/10/15 07:33:35;;;;;;;7.75;4.90;;;13.90;99.90;;;;;;5043902;28;20071;-58
2022/10/15 07:36:06;;;;;;;13.98;4.00;;;13.90;99.90;;;;;;5043013;28;20017;-57
2022/10/15 07:38:33;;;;;;;9.35;4.85;;;14.00;99.90;;;;;;5051213;28;20021;-55
2022/10/15 07:41:00;;;;;;;6.90;3.15;;;14.10;99.90;;;;;;5044770;28;20029;-53
2022/10/15 07:43:26;;;;;;;4.07;3.10;;;14.20;99.90;;;;;;5048172;28;20078;-54
2022/10/15 07:45:52;;;;;;;7.38;3.45;;;14.30;99.90;;;;;;5050800;28;20008;-57
2022/10/15 07:48:17;;;;;;;5.68;3.17;;;14.40;99.90;;;;;;5050843;28;20056;-53
2022/10/15 07:50:43;;;;;;;5.13;2.70;;;14.50;99.90;;;;;;5048966;28;20306;-51
2022/10/15 07:53:09;;;;;;;3.47;2.45;;;14.50;99.90;;;;;;5047948;28;20056;-53
2022/10/15 07:55:34;;;;;;;5.15;2.03;;;14.60;99.90;;;;;;5044684;28;20477;-58
2022/10/15 07:58:00;;;;;;;6.32;1.67;;;14.70;99.90;;;;;;5047419;28;20112;-56
2022/10/15 08:00:25;;;;;;;7.20;1.83;;;14.80;99.90;;;;;;5046859;28;20132;-53
2022/10/15 08:02:51;;;;;;;3.15;1.75;;;14.80;99.90;;;;;;5049987;28;20064;-56
2022/10/15 08:05:16;;;;;;;2.78;1.20;;;14.90;99.90;;;;;;5045328;28;20830;-57
2022/10/15 08:07:42;;;;;;;4.65;1.30;;;15.00;99.90;;;;;;5049607;28;20100;-55
2022/10/15 08:10:09;;;;;;;1.52;1.00;;;15.00;99.90;;;;;;5047006;28;20707;-56
2022/10/15 08:12:35;;;;;;;4.65;2.13;;;15.00;99.90;;;;;;5047178;28;20025;-50
2022/10/15 08:15:01;;;;;;;2.97;1.50;;;15.10;99.90;;;;;;5048707;28;20017;-55
2022/10/15 08:17:27;;;;;;;1.40;1.20;;;15.10;99.90;;;;;;5046631;28;20024;-54
2022/10/15 08:19:52;;;;;;;1.75;1.40;;;15.20;99.90;;;;;;5046350;28;20063;-55
2022/10/15 08:22:18;;;;;;;4.82;1.77;;;15.20;99.90;;;;;;5049656;28;20086;-51
2022/10/15 08:24:43;;;;;;;2.72;1.58;;;15.20;99.90;;;;;;5047212;28;20394;-51
2022/10/15 08:27:09;;;;;;;5.60;1.83;;;15.40;99.90;;;;;;5046392;28;20028;-50
2022/10/15 08:29:34;;;;;;;3.50;1.25;;;15.40;99.90;;;;;;5048021;28;20041;-55
2022/10/15 08:32:00;;;;;;;3.90;1.30;;;15.40;99.90;;;;;;5047209;28;20096;-57
2022/10/15 08:34:25;;;;;;;3.95;1.25;;;15.50;99.90;;;;;;5046441;28;20039;-57
2022/10/15 08:36:51;;;;;;;7.40;1.25;;;15.50;99.90;;;;;;5046018;28;20020;-54
2022/10/15 08:39:17;;;;;;;5.78;2.03;;;15.50;99.90;;;;;;5047545;28;20041;-55
2022/10/15 08:41:53;;;;;;;3.13;1.23;;;15.50;99.90;;;;;;5045718;28;20075;-52
2022/10/15 08:44:30;;;;;;;2.78;1.10;;;15.60;99.90;;;;;;5045035;28;20039;-52
2022/10/15 08:47:06;;;;;;;5.20;1.10;;;15.60;99.90;;;;;;5044130;28;20079;-54
2022/10/15 08:49:48;;;;;;;3.60;1.42;;;15.70;99.90;;;;;;5044935;28;20033;-54
2022/10/15 08:52:24;;;;;;;2.53;1.30;;;15.80;99.90;;;;;;5041223;28;20063;-55
2022/10/15 08:54:50;;;;;;;2.65;1.52;;;15.90;99.90;;;;;;5045599;28;20040;-50
2022/10/15 08:57:41;;;;;;;2.60;1.20;;;15.90;99.90;;;;;;5050473;28;20076;-52
2022/10/15 09:00:12;;;;;;;4.97;1.40;;;16.00;99.90;;;;;;5046901;28;20036;-53
2022/10/15 09:03:08;;;;;;;2.72;1.17;;;16.10;99.90;;;;;;5037097;28;20033;-55
2022/10/15 09:05:52;;;;;;;4.25;1.30;;;16.10;99.90;;;;;;5022865;28;20033;-52
2022/10/15 09:08:35;;;;;;;6.35;1.92;;;16.10;99.90;;;;;;5045678;28;20037;-54
2022/10/15 09:11:11;;;;;;;1.45;1.17;;;16.20;99.90;;;;;;5069012;22;20586;-55
2022/10/15 09:13:40;;;;;;;2.33;1.52;;;16.20;99.90;;;;;;5027851;28;20033;-55
2022/10/15 09:16:15;;;;;;;4.60;1.10;;;16.20;99.90;;;;;;5029724;28;20035;-54
2022/10/15 09:18:45;;;;;;;2.55;1.02;;;16.30;99.90;;;;;;5031421;28;20241;-55
2022/10/15 09:21:12;;;;;;;2.90;1.25;;;16.30;99.90;;;;;;5029052;28;20022;-54
2022/10/15 09:23:40;;;;;;;6.82;1.50;;;16.40;99.90;;;;;;5042601;28;20029;-53
2022/10/15 09:26:12;;;;;;;2.55;1.30;;;16.40;99.90;;;;;;5036613;28;20510;-54
2022/10/15 09:28:58;;;;;;;4.05;1.33;;;16.40;99.90;;;;;;5036376;28;20025;-55
2022/10/15 09:31:30;;;;;;;2.05;1.38;;;16.40;99.90;;;;;;5026999;28;20025;-53
2022/10/15 09:34:09;;;;;;;1.63;1.38;;;16.50;99.90;;;;;;5033341;28;20052;-56
2022/10/15 09:36:52;;;;;;;10.77;1.60;;;16.50;99.90;;;;;;5027107;28;20018;-54
2022/10/15 09:39:48;;;;;;;3.97;1.30;;;16.60;99.90;;;;;;5033315;28;20061;-55
2022/10/15 09:42:37;;;;;;;3.40;1.10;;;16.60;99.90;;;;;;5030370;28;20033;-54
2022/10/15 09:45:08;;;;;;;2.38;1.20;;;16.70;99.90;;;;;;5021969;28;20044;-54
2022/10/15 09:47:35;;;;;;;1.92;1.10;;;16.80;99.90;;;;;;5024807;28;20037;-56
2022/10/15 09:50:02;;;;;;;1.08;0.88;;;16.70;99.90;;;;;;5032516;28;20384;-56
2022/10/15 09:52:50;;;;;;;3.00;1.15;;;16.80;99.90;;;;;;5027570;28;20112;-55
2022/10/15 09:55:55;;;;;;;1.98;1.30;;;17.00;99.90;;;;;;5032131;28;20022;-54
2022/10/15 09:58:53;;;;;;;7.93;1.77;;;17.00;99.90;;;;;;5018077;28;20094;-56
2022/10/15 10:01:24;;;;;;;3.42;1.25;;;17.10;99.90;;;;;;5028958;28;20031;-54
2022/10/15 10:04:08;;;;;;;10.13;2.65;;;17.10;99.90;;;;;;5034170;28;20491;-52
2022/10/15 10:06:48;;;;;;;5.43;1.90;;;17.10;99.90;;;;;;5027055;28;20646;-55
2022/10/15 10:09:20;;;;;;;3.90;1.67;;;17.20;99.90;;;;;;5025860;28;20080;-55
2022/10/15 10:12:01;;;;;;;3.58;1.52;;;17.20;99.90;;;;;;5025888;28;20648;-53
2022/10/15 10:14:30;;;;;;;2.10;1.48;;;17.30;99.90;;;;;;5029539;28;20383;-56
2022/10/15 10:17:06;;;;;;;3.83;1.40;;;17.40;99.90;;;;;;5035190;28;20067;-55
2022/10/15 10:19:32;;;;;;;5.15;1.60;;;17.40;99.90;;;;;;5028112;28;20581;-56
2022/10/15 10:22:18;;;;;;;5.53;1.63;;;17.50;99.90;;;;;;5035886;28;20125;-56
2022/10/15 10:24:47;;;;;;;5.47;1.10;;;17.60;99.90;;;;;;5037640;28;20029;-56
2022/10/15 10:27:22;;;;;;;9.57;0.80;;;17.80;99.90;;;;;;5032542;28;20035;-56
2022/10/15 10:30:12;;;;;;;8.15;1.30;;;17.90;99.90;;;;;;5037646;28;20028;-57
2022/10/15 10:32:38;;;;;;;0.98;0.80;;;18.00;99.90;;;;;;5024924;28;20021;-56
2022/10/15 10:35:04;;;;;;;1.63;0.90;;;18.00;99.90;;;;;;5033577;28;20512;-56
2022/10/15 10:37:41;;;;;;;5.97;0.70;;;18.00;99.90;;;;;;5017642;28;20029;-57
2022/10/15 10:40:26;;;;;;;3.70;1.02;;;17.90;99.90;;;;;;5030018;28;20022;-54
2022/10/15 10:43:20;;;;;;;4.68;0.82;;;17.80;99.90;;;;;;5021976;28;20022;-52
2022/10/15 10:45:54;;;;;;;4.47;0.88;;;17.80;99.90;;;;;;5022865;28;20125;-56
2022/10/15 10:48:25;;;;;;;1.48;0.60;;;17.90;99.90;;;;;;5025004;28;20534;-54
2022/10/15 10:51:05;;;;;;;3.45;1.27;;;17.90;99.90;;;;;;5033092;28;20120;-52
2022/10/15 10:53:33;;;;;;;1.35;1.25;;;18.00;99.90;;;;;;5029726;28;20486;-53
2022/10/15 10:56:00;;;;;;;0.75;0.55;;;18.00;99.90;;;;;;5024916;28;20100;-55
2022/10/15 10:58:28;;;;;;;2.47;0.68;;;18.10;99.90;;;;;;5026038;28;20029;-56
2022/10/15 11:00:55;;;;;;;4.32;0.85;;;18.20;99.90;;;;;;5017947;28;20459;-56
2022/10/15 11:03:30;;;;;;;0.63;0.50;;;18.20;99.90;;;;;;5024836;28;20032;-54
2022/10/15 11:06:10;;;;;;;;;;;18.40;99.90;;;;;;5020342;28;20492;-55
2022/10/15 11:08:57;;;;;;;6.47;0.65;;;18.60;99.90;;;;;;5024624;28;20293;-54
2022/10/15 11:11:30;;;;;;;1.13;0.15;;;18.80;99.90;;;;;;5025695;28;20406;-55
2022/10/15 11:14:23;;;;;;;0.38;0.20;;;19.00;99.90;;;;;;5020533;28;20030;-53
2022/10/15 11:17:14;;;;;;;0.22;0.22;;;19.20;99.90;;;;;;5018947;28;20087;-53
2022/10/15 11:19:54;;;;;;;1.30;0.40;;;19.30;99.90;;;;;;5016665;28;20057;-56
2022/10/15 11:22:30;;;;;;;0.55;0.32;;;19.30;99.90;;;;;;5028187;28;20026;-54
2022/10/15 11:25:04;;;;;;;3.60;1.10;;;19.30;99.90;;;;;;5004037;28;20037;-56
2022/10/15 11:27:39;;;;;;;5.05;0.43;;;19.30;99.90;;;;;;5021023;28;20037;-56
2022/10/15 11:30:07;;;;;;;;;;;19.30;99.90;;;;;;5025866;28;20034;-56
2022/10/15 11:32:44;;;;;;;3.17;0.85;;;19.40;99.90;;;;;;5028442;28;20496;-56
2022/10/15 11:35:46;;;;;;;0.93;0.40;;;19.50;99.90;;;;;;5026649;28;20018;-54
2022/10/15 11:38:44;;;;;;;0.28;0.28;;;19.60;99.90;;;;;;5024519;28;20032;-56
2022/10/15 11:41:19;;;;;;;0.10;0.10;;;19.60;99.90;;;;;;5026068;28;20029;-56
2022/10/15 11:44:18;;;;;;;1.75;0.30;;;19.70;99.90;;;;;;5020086;28;20511;-55
2022/10/15 11:47:00;;;;;;;3.75;0.20;;;19.60;99.90;;;;;;5027051;28;20053;-56
2022/10/15 11:49:54;;;;;;;0.82;0.22;;;19.70;99.90;;;;;;5024884;28;20044;-56
2022/10/15 11:52:45;;;;;;;2.90;0.30;;;19.60;99.90;;;;;;5026555;28;20539;-53
2022/10/15 11:55:19;;;;;;;0.55;0.20;;;19.60;99.90;;;;;;5023617;28;20084;-55
2022/10/15 11:57:49;;;;;;;0.35;0.20;;;19.60;99.90;;;;;;5025852;28;20030;-56
2022/10/15 12:00:42;;;;;;;9.80;0.70;;;19.60;99.90;;;;;;5028961;28;20097;-55
2022/10/15 12:03:24;;;;;;;0.20;0.10;;;19.60;99.90;;;;;;4995395;28;20029;-54
2022/10/15 12:06:13;;;;;;;0.32;0.30;;;19.60;99.90;;;;;;5027467;28;20033;-56
2022/10/15 12:08:40;;;;;;;1.25;0.30;;;19.60;99.90;;;;;;5034708;28;20030;-53
2022/10/15 12:11:39;;;;;;;1.15;0.30;;;19.60;99.90;;;;;;5032724;28;20037;-52
2022/10/15 12:14:29;;;;;;;3.70;0.20;;;19.70;99.90;;;;;;5034333;28;20061;-56
2022/10/15 12:17:13;;;;;;;0.20;0.20;;;19.70;99.90;;;;;;5026721;28;20029;-56
2022/10/15 12:19:53;;;;;;;2.88;0.30;;;19.80;99.90;;;;;;5028477;28;20068;-53
2022/10/15 12:22:32;;;;;;;0.20;0.20;;;19.90;99.90;;;;;;5018402;28;20133;-56
2022/10/15 12:24:58;;;;;;;1.77;0.40;;;19.90;99.90;;;;;;5016258;28;20022;-54
2022/10/15 12:27:34;;;;;;;2.67;0.20;;;20.00;99.90;;;;;;5026076;28;20033;-55
2022/10/15 12:30:02;;;;;;;1.50;0.40;;;20.00;99.90;;;;;;5023765;28;20082;-55
2022/10/15 12:32:35;;;;;;;0.20;0.20;;;20.10;99.90;;;;;;5028135;28;20104;-54
2022/10/15 12:35:04;;;;;;;0.45;0.20;;;20.10;99.90;;;;;;5015076;28;20150;-52
2022/10/15 12:37:33;;;;;;;6.88;0.40;;;20.00;99.90;;;;;;5029931;28;20506;-53
2022/10/15 12:40:21;;;;;;;0.20;0.20;;;20.00;99.90;;;;;;5030440;28;20037;-55
2022/10/15 12:43:11;;;;;;;0.10;0.10;;;20.00;99.90;;;;;;5024561;28;20438;-55
2022/10/15 12:45:39;;;;;;;0.20;0.20;;;20.10;99.90;;;;;;5026816;28;20116;-55
2022/10/15 12:48:05;;;;;;;0.45;0.20;;;20.10;99.90;;;;;;5030481;28;20040;-55
2022/10/15 12:50:36;;;;;;;0.20;0.20;;;20.30;99.90;;;;;;5027811;28;20095;-52
2022/10/15 12:53:06;;;;;;;0.28;0.20;;;20.50;99.90;;;;;;5029782;28;20398;-55
2022/10/15 12:55:31;;;;;;;0.68;0.30;;;20.60;99.90;;;;;;5032887;28;20555;-56
2022/10/15 12:58:23;;;;;;;0.30;0.20;;;20.70;99.90;;;;;;5030186;28;20112;-54
2022/10/15 13:00:48;;;;;;;3.33;0.30;;;20.70;99.90;;;;;;5024593;28;20403;-53
2022/10/15 13:03:25;;;;;;;0.20;0.20;;;20.70;99.90;;;;;;5035187;28;20029;-55